Martins Mills, Texas
Current Conditions -  °F | °C
As of 7:53 AM on Thursday 23 Oct 2014 (Local Time) from KTYR Reporting Station
Few Clouds Few Clouds  
Wind Chill: 59°   Ceiling: Unl
Heat Index: 59°   Visibility: 10mi
Dew Point: 53°   Wind: 5mph
Humidity: 81%   Direction: 50°NE
Pressure: 30.14"   Gusts: NA
Location:  32.416°N, 95.6606°W
Report Text: KTYR 231253Z 05004KT 10SM FEW120 15/12 A3014 RMK AO2 SLP203 T01500117
Loading
Personal Weather Stations






























Interactive Weather Map
Tropical Storm Tracking
New forecast layout! Learn more

10-Day Weather Forecast

Advertisements
Track Severe Weather on mobile